createdAt,value
2022-08-18T00:01:11.875Z,100931.50
2022-08-18T00:03:56.027Z,100895.50
2022-08-18T00:09:10.074Z,100883.16
2022-08-18T00:11:40.451Z,100889.97
2022-08-18T00:14:11.554Z,100879.31
2022-08-18T00:16:46.074Z,100873.31
2022-08-18T00:19:12.926Z,100861.28
2022-08-18T00:21:39.826Z,100863.63
2022-08-18T00:24:06.482Z,100851.19
2022-08-18T00:26:36.844Z,100853.28
2022-08-18T00:29:03.930Z,100850.53
2022-08-18T00:31:31.542Z,100850.53
2022-08-18T00:33:58.338Z,100837.56
2022-08-18T00:36:25.030Z,100838.19
2022-08-18T00:38:51.930Z,100831.31
2022-08-18T00:41:18.587Z,100822.47
2022-08-18T00:46:24.770Z,100817.41
2022-08-18T00:48:52.821Z,100821.13
2022-08-18T00:51:34.385Z,100822.41
2022-08-18T00:54:11.385Z,100835.41
2022-08-18T00:56:43.896Z,100823.25
2022-08-18T00:59:16.912Z,100815.69
2022-08-18T01:01:44.716Z,100811.22
2022-08-18T01:04:34.528Z,100818.25
2022-08-18T01:07:06.617Z,100808.94
2022-08-18T01:09:33.153Z,100801.28
2022-08-18T01:11:59.729Z,100786.50
2022-08-18T01:14:27.145Z,100770.25
2022-08-18T01:17:12.542Z,100768.28
2022-08-18T01:19:58.133Z,100765.22
2022-08-18T01:22:29.507Z,100768.72
2022-08-18T01:25:17.144Z,100769.31
2022-08-18T01:27:43.798Z,100765.84
2022-08-18T01:30:14.163Z,100768.03
2022-08-18T01:32:42.104Z,100771.78
2022-08-18T01:35:09.340Z,100762.31
2022-08-18T01:37:36.533Z,100762.19
2022-08-18T01:41:23.888Z,100750.72
2022-08-18T01:42:53.927Z,100760.47
2022-08-18T01:45:27.829Z,100771.59
2022-08-18T01:47:54.625Z,100765.53
2022-08-18T01:50:21.252Z,100762.63
2022-08-18T01:52:47.851Z,100760.13
2022-08-18T01:55:14.581Z,100752.19
2022-08-18T01:57:43.060Z,100738.41
2022-08-18T02:00:12.380Z,100730.41
2022-08-18T02:02:39.933Z,100725.84
2022-08-18T02:05:10.938Z,100725.88
2022-08-18T02:07:38.384Z,100715.34
2022-08-18T02:10:10.324Z,100709.72
2022-08-18T02:12:39.848Z,100708.06
2022-08-18T02:15:08.000Z,100705.34
2022-08-18T02:17:43.460Z,100707.50
2022-08-18T02:20:12.282Z,100703.69
2022-08-18T02:22:41.334Z,100690.69
2022-08-18T02:25:08.644Z,100694.50
2022-08-18T02:27:35.337Z,100689.44
2022-08-18T02:30:04.315Z,100681.44
2022-08-18T02:32:32.141Z,100673.63
2022-08-18T02:34:58.807Z,100650.28
2022-08-18T02:37:25.703Z,100650.50
2022-08-18T02:39:52.283Z,100646.28
2022-08-18T02:42:18.905Z,100665.41
2022-08-18T02:44:45.520Z,100712.91
2022-08-18T02:47:12.088Z,100754.53
2022-08-18T02:49:39.054Z,100720.91
2022-08-18T02:52:06.179Z,100680.75
2022-08-18T02:54:32.878Z,100675.53
2022-08-18T02:56:59.428Z,100675.28
2022-08-18T02:59:27.763Z,100673.38
2022-08-18T03:01:56.253Z,100679.38
2022-08-18T03:04:29.642Z,100669.81
2022-08-18T03:07:00.559Z,100679.31
2022-08-18T03:09:27.800Z,100745.56
2022-08-18T03:11:54.718Z,100813.91
2022-08-18T03:14:21.636Z,100818.09
2022-08-18T03:16:54.376Z,100795.22
2022-08-18T03:19:26.450Z,100803.41
2022-08-18T03:21:53.302Z,100801.31
2022-08-18T03:24:22.481Z,100772.63
2022-08-18T03:26:51.424Z,100754.53
2022-08-18T03:29:18.073Z,100738.59
2022-08-18T03:31:45.457Z,100712.00
2022-08-18T03:34:12.653Z,100674.69
2022-08-18T03:36:39.696Z,100651.56
2022-08-18T03:39:10.701Z,100656.22
2022-08-18T03:41:43.759Z,100655.84
2022-08-18T03:44:25.231Z,100659.50
2022-08-18T03:46:52.279Z,100669.38
2022-08-18T03:49:20.508Z,100698.44
2022-08-18T03:51:48.746Z,100712.13
2022-08-18T03:54:17.102Z,100674.13
2022-08-18T03:56:45.545Z,100633.75
2022-08-18T03:59:23.427Z,100666.69
2022-08-18T04:01:51.775Z,100682.63
2022-08-18T04:04:22.167Z,100640.00
2022-08-18T04:06:51.192Z,100634.59
2022-08-18T04:09:18.599Z,100647.66
2022-08-18T04:11:46.053Z,100636.72
2022-08-18T04:14:15.523Z,100630.13
2022-08-18T04:16:42.395Z,100614.75
2022-08-18T04:19:10.221Z,100612.59
2022-08-18T04:21:39.474Z,100619.06
2022-08-18T04:24:08.193Z,100625.31
2022-08-18T04:26:37.891Z,100642.94
2022-08-18T04:29:05.687Z,100643.31
2022-08-18T04:31:33.549Z,100659.69
2022-08-18T04:34:01.664Z,100683.22
2022-08-18T04:36:30.370Z,100682.59
2022-08-18T04:38:58.952Z,100662.44
2022-08-18T04:41:27.585Z,100630.53
2022-08-18T04:43:55.878Z,100673.25
2022-08-18T04:46:24.273Z,100722.50
2022-08-18T04:48:52.323Z,100728.06
2022-08-18T04:52:36.668Z,100690.69
2022-08-18T04:54:07.517Z,100674.72
2022-08-18T04:56:37.501Z,100667.84
2022-08-18T04:59:06.561Z,100689.00
2022-08-18T05:01:48.369Z,100721.66
2022-08-18T05:04:16.937Z,100754.75
2022-08-18T05:06:44.678Z,100740.69
2022-08-18T05:09:16.607Z,100690.72
2022-08-18T05:11:49.233Z,100641.84
2022-08-18T05:14:17.408Z,100621.91
2022-08-18T05:16:48.807Z,100651.06
2022-08-18T05:19:23.399Z,100703.88
2022-08-18T05:21:53.566Z,100737.81
2022-08-18T05:24:33.541Z,100774.69
2022-08-18T05:27:04.366Z,100807.38
2022-08-18T05:29:41.914Z,100825.44
2022-08-18T05:32:41.199Z,100823.38
2022-08-18T05:35:21.771Z,100806.63
2022-08-18T05:38:00.755Z,100794.28
2022-08-18T05:40:31.192Z,100785.34
2022-08-18T05:42:59.349Z,100760.81
2022-08-18T05:45:26.894Z,100769.22
2022-08-18T05:47:58.708Z,100779.31
2022-08-18T05:50:25.829Z,100768.34
2022-08-18T05:52:58.012Z,100749.78
2022-08-18T05:55:55.906Z,100733.16
2022-08-18T05:58:32.925Z,100703.81
2022-08-18T06:01:08.401Z,100714.91
2022-08-18T06:03:45.505Z,100716.97
2022-08-18T06:06:30.401Z,100705.91
2022-08-18T06:09:20.237Z,100698.97
2022-08-18T06:11:47.280Z,100663.47
2022-08-18T06:14:13.988Z,100654.66
2022-08-18T06:17:12.465Z,100626.34
2022-08-18T06:20:03.163Z,100596.38
2022-08-18T06:22:33.959Z,100576.28
2022-08-18T06:25:28.455Z,100568.75
2022-08-18T06:28:06.397Z,100561.22
2022-08-18T06:30:33.169Z,100582.19
2022-08-18T06:33:08.421Z,100579.06
2022-08-18T06:35:42.433Z,100581.19
2022-08-18T06:38:36.417Z,100565.47
2022-08-18T06:41:03.212Z,100549.75
2022-08-18T06:43:32.316Z,100547.03
2022-08-18T06:45:59.009Z,100573.84
2022-08-18T06:48:33.152Z,100584.81
2022-08-18T06:51:01.880Z,100593.69
2022-08-18T06:53:52.608Z,100572.94
2022-08-18T06:56:34.910Z,100551.38
2022-08-18T06:59:27.340Z,100556.44
2022-08-18T07:02:01.964Z,100602.78
2022-08-18T07:04:59.655Z,100664.69
2022-08-18T07:07:39.183Z,100712.81
2022-08-18T07:10:31.904Z,100760.09
2022-08-18T07:13:18.848Z,100776.53
2022-08-18T07:15:48.138Z,100761.06
2022-08-18T07:18:20.816Z,100758.81
2022-08-18T07:20:53.928Z,100751.97
2022-08-18T07:23:26.476Z,100746.16
2022-08-18T07:26:15.971Z,100731.50
2022-08-18T07:28:48.113Z,100734.47
2022-08-18T07:31:36.778Z,100753.63
2022-08-18T07:34:14.011Z,100767.28
2022-08-18T07:36:55.132Z,100769.38
2022-08-18T07:39:31.816Z,100765.53
2022-08-18T07:42:53.541Z,100746.84
2022-08-18T07:45:25.308Z,100742.56
2022-08-18T07:51:36.922Z,100747.22
2022-08-18T07:54:48.203Z,100731.59
2022-08-18T07:57:25.588Z,100741.97
2022-08-18T08:00:04.246Z,100743.78
2022-08-18T08:02:46.430Z,100720.56
2022-08-18T08:05:43.553Z,100691.56
2022-08-18T08:08:21.505Z,100696.59
2022-08-18T08:10:59.306Z,100695.38
2022-08-18T08:13:54.755Z,100685.84
2022-08-18T08:16:28.644Z,100691.88
2022-08-18T08:19:13.930Z,100687.66
2022-08-18T08:22:04.979Z,100677.88
2022-08-18T08:24:34.368Z,100654.28
2022-08-18T08:27:00.852Z,100638.63
2022-08-18T08:29:44.003Z,100619.59
2022-08-18T08:32:19.315Z,100612.47
2022-08-18T08:34:51.815Z,100619.22
2022-08-18T08:37:23.528Z,100638.09
2022-08-18T08:40:08.476Z,100630.09
2022-08-18T08:42:58.457Z,100625.41
2022-08-18T08:45:27.282Z,100627.38
2022-08-18T08:48:08.898Z,100621.19
2022-08-18T08:50:41.577Z,100626.88
2022-08-18T08:53:11.671Z,100630.66
2022-08-18T08:55:56.636Z,100635.72
2022-08-18T08:58:31.898Z,100642.44
2022-08-18T09:00:58.608Z,100637.31
2022-08-18T09:03:53.440Z,100639.63
2022-08-18T09:06:32.059Z,100648.44
2022-08-18T09:09:17.282Z,100652.66
2022-08-18T09:11:52.873Z,100647.88
2022-08-18T09:14:51.453Z,100630.88
2022-08-18T09:17:55.645Z,100621.69
2022-08-18T09:20:40.250Z,100604.00
2022-08-18T09:23:12.553Z,100573.41
2022-08-18T09:25:39.442Z,100537.38
2022-08-18T09:28:29.113Z,100458.81
2022-08-18T09:34:13.207Z,100322.22
2022-08-18T09:37:11.554Z,100383.53
2022-08-18T09:43:31.671Z,100494.28
2022-08-18T09:46:04.875Z,100546.34
2022-08-18T09:48:43.247Z,100597.25
2022-08-18T09:51:18.236Z,100627.69
2022-08-18T09:54:08.671Z,100624.97
2022-08-18T09:57:05.277Z,100642.91
2022-08-18T09:59:35.524Z,100647.34
2022-08-18T10:05:19.090Z,100637.47
2022-08-18T10:07:53.969Z,100637.91
2022-08-18T10:13:50.916Z,100628.38
2022-08-18T10:17:13.200Z,100632.00
2022-08-18T10:19:44.113Z,100636.44
2022-08-18T10:22:38.523Z,100645.28
2022-08-18T10:27:57.906Z,100653.47
2022-08-18T10:30:57.363Z,100655.78
2022-08-18T10:34:00.341Z,100656.91
2022-08-18T10:36:38.696Z,100646.50
2022-08-18T10:39:11.778Z,100653.38
2022-08-18T10:42:15.067Z,100671.94
2022-08-18T10:44:45.461Z,100695.94
2022-08-18T10:50:22.361Z,100695.81
2022-08-18T10:53:39.037Z,100682.56
2022-08-18T10:56:33.729Z,100677.69
2022-08-18T10:59:07.502Z,100665.03
2022-08-18T11:01:53.266Z,100674.00
2022-08-18T11:04:38.792Z,100678.88
2022-08-18T11:07:10.570Z,100674.63
2022-08-18T11:09:41.586Z,100674.69
2022-08-18T11:12:12.709Z,100679.66
2022-08-18T11:14:46.707Z,100689.28
2022-08-18T11:17:47.987Z,100683.28
2022-08-18T11:20:18.336Z,100689.78
2022-08-18T11:23:00.526Z,100671.53
2022-08-18T11:25:31.155Z,100674.28
2022-08-18T11:27:59.631Z,100639.91
2022-08-18T11:33:26.993Z,100668.78
2022-08-18T11:35:59.382Z,100668.19
2022-08-18T11:38:31.228Z,100681.91
2022-08-18T11:41:17.838Z,100689.91
2022-08-18T11:43:47.449Z,100671.78
2022-08-18T11:46:27.717Z,100692.41
2022-08-18T11:48:57.345Z,100697.47
2022-08-18T11:51:25.382Z,100695.38
2022-08-18T11:53:58.731Z,100695.75
2022-08-18T11:56:35.847Z,100682.09
2022-08-18T11:59:07.718Z,100670.75
2022-08-18T12:01:43.879Z,100697.47
2022-08-18T12:04:13.504Z,100694.94
2022-08-18T12:06:51.211Z,100704.41
2022-08-18T12:12:32.115Z,100731.97
2022-08-18T12:15:23.872Z,100734.50
2022-08-18T12:17:53.406Z,100729.03
2022-08-18T12:20:21.767Z,100738.47
2022-08-18T12:22:50.068Z,100745.22
2022-08-18T12:25:25.407Z,100738.66
2022-08-18T12:27:55.452Z,100743.25
2022-08-18T12:30:22.102Z,100743.88
2022-08-18T12:35:37.428Z,100756.47
2022-08-18T12:38:12.489Z,100758.97
2022-08-18T12:40:40.635Z,100764.63
2022-08-18T12:43:07.507Z,100755.75
2022-08-18T12:45:34.225Z,100763.75
2022-08-18T12:48:04.126Z,100767.13
2022-08-18T12:50:35.015Z,100768.38
2022-08-18T12:53:05.814Z,100771.53
2022-08-18T12:55:37.665Z,100767.69
2022-08-18T12:58:10.385Z,100773.81
2022-08-18T13:00:37.452Z,100774.84
2022-08-18T13:03:04.046Z,100776.72
2022-08-18T13:05:30.669Z,100772.69
2022-08-18T13:08:04.041Z,100775.88
2022-08-18T13:10:43.012Z,100787.84
2022-08-18T13:13:14.227Z,100792.31
2022-08-18T13:15:55.518Z,100792.31
2022-08-18T13:18:27.378Z,100787.22
2022-08-18T13:20:59.341Z,100786.59
2022-08-18T13:23:27.608Z,100780.06
2022-08-18T13:26:01.249Z,100783.03
2022-08-18T13:28:30.925Z,100784.31
2022-08-18T13:31:05.371Z,100785.34
2022-08-18T13:33:34.653Z,100780.94
2022-08-18T13:36:19.821Z,100785.81
2022-08-18T13:38:46.622Z,100788.56
2022-08-18T13:41:15.810Z,100788.56
2022-08-18T13:43:44.511Z,100776.75
2022-08-18T13:46:13.301Z,100783.69
2022-08-18T13:48:41.770Z,100790.22
2022-08-18T13:51:10.174Z,100800.09
2022-08-18T13:53:50.387Z,100788.47
2022-08-18T13:56:31.401Z,100791.97
2022-08-18T13:58:58.667Z,100792.75
2022-08-18T14:01:44.407Z,100789.59
2022-08-18T14:04:15.010Z,100786.63
2022-08-18T14:06:56.365Z,100785.44
2022-08-18T14:09:35.871Z,100781.31
2022-08-18T14:12:06.767Z,100777.31
2022-08-18T14:14:42.338Z,100779.63
2022-08-18T14:17:09.119Z,100776.72
2022-08-18T14:19:54.479Z,100777.53
2022-08-18T14:22:41.376Z,100768.47
2022-08-18T14:25:28.147Z,100764.50
2022-08-18T14:27:56.547Z,100762.81
2022-08-18T14:30:24.249Z,100771.06
2022-08-18T14:32:53.598Z,100766.66
2022-08-18T14:35:34.263Z,100754.03
2022-08-18T14:38:09.977Z,100743.06
2022-08-18T14:40:41.753Z,100735.06
2022-08-18T14:49:31.440Z,100743.50
2022-08-18T14:51:59.626Z,100741.81
2022-08-18T14:54:28.263Z,100742.03
2022-08-18T14:56:55.899Z,100739.09
2022-08-18T14:59:23.700Z,100736.13
2022-08-18T15:01:51.449Z,100736.97
2022-08-18T15:04:19.829Z,100742.22
2022-08-18T15:06:56.225Z,100752.34
2022-08-18T15:09:27.455Z,100756.16
2022-08-18T15:11:56.309Z,100750.66
2022-08-18T15:14:32.661Z,100750.88
2022-08-18T15:17:00.528Z,100755.75
2022-08-18T15:19:59.011Z,100749.41
2022-08-18T15:22:32.865Z,100752.63
2022-08-18T15:25:17.973Z,100755.34
2022-08-18T15:27:48.030Z,100746.28
2022-08-18T15:30:20.281Z,100745.44
2022-08-18T15:32:49.726Z,100738.03
2022-08-18T15:35:19.521Z,100742.69
2022-08-18T15:37:51.047Z,100752.00
2022-08-18T15:40:30.793Z,100750.09
2022-08-18T15:43:06.844Z,100748.19
2022-08-18T15:45:42.875Z,100762.97
2022-08-18T15:48:10.975Z,100759.59
2022-08-18T15:50:42.628Z,100766.31
2022-08-18T15:53:20.767Z,100776.44
2022-08-18T15:55:50.202Z,100787.41
2022-08-18T15:58:18.225Z,100783.00
2022-08-18T16:00:50.639Z,100771.41
2022-08-18T16:03:17.798Z,100770.56
2022-08-18T16:05:53.285Z,100763.00
2022-08-18T16:08:25.628Z,100773.75
2022-08-18T16:10:53.488Z,100776.03
2022-08-18T16:13:20.279Z,100770.66
2022-08-18T16:15:48.283Z,100757.06
2022-08-18T16:18:18.542Z,100754.88
2022-08-18T16:20:47.615Z,100749.13
2022-08-18T16:23:16.234Z,100747.88
2022-08-18T16:25:44.010Z,100737.72
2022-08-18T16:28:13.254Z,100734.75
2022-08-18T16:30:40.427Z,100724.34
2022-08-18T16:33:07.282Z,100707.16
2022-08-18T16:35:34.896Z,100702.44
2022-08-18T16:38:05.042Z,100705.56
2022-08-18T16:40:31.830Z,100700.25
2022-08-18T16:43:00.617Z,100679.31
2022-08-18T16:45:28.157Z,100682.69
2022-08-18T16:47:54.989Z,100672.00
2022-08-18T16:50:22.919Z,100665.63
2022-08-18T16:52:49.644Z,100660.31
2022-08-18T16:55:16.262Z,100660.09
2022-08-18T16:58:02.232Z,100661.91
2022-08-18T17:00:51.537Z,100658.28
2022-08-18T17:03:42.097Z,100663.84
2022-08-18T17:06:15.604Z,100667.66
2022-08-18T17:08:43.162Z,100670.97
2022-08-18T17:11:16.048Z,100668.47
2022-08-18T17:13:43.916Z,100662.28
2022-08-18T17:16:11.340Z,100673.75
2022-08-18T17:18:38.259Z,100678.66
2022-08-18T17:21:10.247Z,100686.91
2022-08-18T17:23:38.854Z,100680.84
2022-08-18T17:26:07.980Z,100680.63
2022-08-18T17:28:50.148Z,100689.84
2022-08-18T17:31:17.575Z,100689.78
2022-08-18T17:33:45.647Z,100673.94
2022-08-18T17:36:21.552Z,100678.38
2022-08-18T17:38:54.480Z,100673.31
2022-08-18T17:41:21.303Z,100669.53
2022-08-18T17:43:48.172Z,100661.00
2022-08-18T17:46:28.658Z,100655.44
2022-08-18T17:49:03.536Z,100662.28
2022-08-18T17:51:44.919Z,100660.00
2022-08-18T17:54:38.094Z,100651.41
2022-08-18T17:57:29.210Z,100658.84
2022-08-18T18:00:08.427Z,100659.72
2022-08-18T18:02:35.164Z,100650.25
2022-08-18T18:05:06.533Z,100648.16
2022-08-18T18:07:44.829Z,100648.19
2022-08-18T18:10:14.330Z,100653.88
2022-08-18T18:12:41.440Z,100651.78
2022-08-18T18:15:11.824Z,100655.59
2022-08-18T18:17:41.110Z,100654.09
2022-08-18T18:20:25.427Z,100652.44
2022-08-18T18:22:52.437Z,100650.75
2022-08-18T18:25:34.430Z,100660.44
2022-08-18T18:28:01.649Z,100660.88
2022-08-18T18:30:32.672Z,100673.47
2022-08-18T18:33:03.326Z,100685.06
2022-08-18T18:35:34.174Z,100676.84
2022-08-18T18:38:06.532Z,100674.75
2022-08-18T18:40:39.631Z,100676.84
2022-08-18T18:43:46.974Z,100680.66
2022-08-18T18:46:25.233Z,100675.78
2022-08-18T18:49:10.693Z,100669.06
2022-08-18T18:51:50.571Z,100665.91
2022-08-18T18:54:35.990Z,100664.22
2022-08-18T18:57:09.788Z,100662.97
2022-08-18T19:02:49.702Z,100646.97
2022-08-18T19:05:40.539Z,100643.81
2022-08-18T19:08:33.042Z,100649.94
2022-08-18T19:11:07.263Z,100639.00
2022-08-18T19:13:43.063Z,100650.56
2022-08-18T19:16:24.554Z,100648.03
2022-08-18T19:19:36.259Z,100655.63
2022-08-18T19:22:06.443Z,100653.06
2022-08-18T19:24:38.892Z,100655.81
2022-08-18T19:27:07.582Z,100654.78
2022-08-18T19:29:37.941Z,100655.41
2022-08-18T19:32:10.663Z,100663.78
2022-08-18T19:34:51.504Z,100675.56
2022-08-18T19:37:42.007Z,100686.28
2022-08-18T19:40:30.553Z,100691.97
2022-08-18T19:43:06.532Z,100703.09
2022-08-18T19:45:42.253Z,100707.28
2022-08-18T19:48:31.630Z,100706.88
2022-08-18T19:51:12.390Z,100712.72
2022-08-18T19:53:56.611Z,100712.94
2022-08-18T19:56:56.643Z,100720.28
2022-08-18T19:59:47.927Z,100720.28
2022-08-18T20:02:51.824Z,100729.75
2022-08-18T20:05:20.457Z,100737.13
2022-08-18T20:08:07.900Z,100741.94
2022-08-18T20:10:57.923Z,100748.22
2022-08-18T20:13:33.046Z,100741.09
2022-08-18T20:16:02.408Z,100733.31
2022-08-18T20:18:35.500Z,100743.41
2022-08-18T20:21:14.122Z,100749.94
2022-08-18T20:23:56.144Z,100752.44
2022-08-18T20:26:34.754Z,100748.66
2022-08-18T20:29:01.779Z,100751.16
2022-08-18T20:31:45.119Z,100762.97
2022-08-18T20:34:14.696Z,100761.06
2022-08-18T20:36:43.274Z,100747.84
2022-08-18T20:39:40.940Z,100742.16
2022-08-18T20:42:29.199Z,100746.38
2022-08-18T20:45:00.163Z,100756.50
2022-08-18T20:47:29.615Z,100759.22
2022-08-18T20:50:34.041Z,100755.00
2022-08-18T20:53:39.815Z,100762.38
2022-08-18T20:56:31.341Z,100757.97
2022-08-18T20:59:09.333Z,100755.22
2022-08-18T21:01:36.835Z,100756.06
2022-08-18T21:04:03.571Z,100757.53
2022-08-18T21:06:44.626Z,100746.19
2022-08-18T21:09:17.693Z,100752.31
2022-08-18T21:11:45.731Z,100758.41
2022-08-18T21:14:14.995Z,100756.31
2022-08-18T21:16:45.221Z,100754.66
2022-08-18T21:19:20.047Z,100756.75
2022-08-18T21:21:53.744Z,100758.00
2022-08-18T21:24:44.548Z,100751.66
2022-08-18T21:27:19.430Z,100748.94
2022-08-18T21:29:49.610Z,100743.28
2022-08-18T21:32:22.872Z,100752.94
2022-08-18T21:34:49.662Z,100764.75
2022-08-18T21:37:18.253Z,100763.88
2022-08-18T21:39:56.962Z,100761.09
2022-08-18T21:42:29.840Z,100762.78
2022-08-18T21:45:00.515Z,100764.25
2022-08-18T21:47:33.303Z,100762.97
2022-08-18T21:50:08.335Z,100754.13
2022-08-18T21:52:37.340Z,100757.06
2022-08-18T21:55:16.577Z,100760.00
2022-08-18T21:58:17.917Z,100759.34
2022-08-18T22:00:46.260Z,100767.97
2022-08-18T22:03:22.632Z,100765.41
2022-08-18T22:06:03.033Z,100766.22
2022-08-18T22:08:32.553Z,100777.59
2022-08-18T22:12:01.138Z,100781.38
2022-08-18T22:14:54.755Z,100771.72
2022-08-18T22:17:30.061Z,100772.16
2022-08-18T22:20:31.748Z,100768.16
2022-08-18T22:23:42.813Z,100763.97
2022-08-18T22:26:29.667Z,100763.78
2022-08-18T22:29:02.265Z,100762.72
2022-08-18T22:31:33.182Z,100748.66
2022-08-18T22:34:02.114Z,100756.00
2022-08-18T22:36:31.250Z,100741.94
2022-08-18T22:38:58.019Z,100734.13
2022-08-18T22:41:25.568Z,100735.56
2022-08-18T22:43:54.778Z,100731.38
2022-08-18T22:46:24.793Z,100737.69
2022-08-18T22:48:52.728Z,100724.00
2022-08-18T22:51:21.825Z,100718.78
2022-08-18T22:53:48.395Z,100715.22
2022-08-18T22:56:14.945Z,100710.81
2022-08-18T22:58:49.289Z,100701.59
2022-08-18T23:01:17.362Z,100691.28
2022-08-18T23:03:44.029Z,100693.88
2022-08-18T23:06:10.764Z,100684.44
2022-08-18T23:08:54.862Z,100685.06
2022-08-18T23:11:22.412Z,100685.25
2022-08-18T23:13:48.977Z,100677.66
2022-08-18T23:16:31.182Z,100671.13
2022-08-18T23:19:03.530Z,100667.09
2022-08-18T23:21:34.963Z,100662.69
2022-08-18T23:24:05.894Z,100651.94
2022-08-18T23:26:34.130Z,100653.78
2022-08-18T23:29:01.005Z,100663.06
2022-08-18T23:31:27.916Z,100653.78
2022-08-18T23:33:54.483Z,100648.56
2022-08-18T23:36:21.288Z,100649.59
2022-08-18T23:38:47.976Z,100652.75
2022-08-18T23:41:16.248Z,100637.81
2022-08-18T23:43:43.246Z,100648.13
2022-08-18T23:46:22.082Z,100653.78
